Time;durP1;ratioP1;P1;durP2;ratioP2;P2;SDS_P1;SDS_P2;PMS_P1;PMS_P2;Temp;Humidity;BMP_temperature;BMP_pressure;BME280_temperature;BME280_humidity;BME280_pressure;Samples;Min_cycle;Max_cycle;Signal;HPM_P1;HPM_P2
2023/05/27 00:00:05;;;;;;;10.27;2.50;;;11.10;99.90;;;;;;4903496;29;20426;-73
2023/05/27 00:02:30;;;;;;;9.55;2.88;;;11.00;99.90;;;;;;4903741;29;20037;-72
2023/05/27 00:04:56;;;;;;;11.98;3.28;;;11.00;99.90;;;;;;4903941;29;20048;-73
2023/05/27 00:07:22;;;;;;;11.65;2.60;;;11.00;99.90;;;;;;4902448;29;20397;-72
2023/05/27 00:09:48;;;;;;;11.40;2.88;;;11.00;99.90;;;;;;4903042;29;20087;-73
2023/05/27 00:12:13;;;;;;;11.60;3.00;;;11.00;99.90;;;;;;4903395;29;20140;-73
2023/05/27 00:14:39;;;;;;;9.73;2.63;;;11.00;99.90;;;;;;4903249;29;20072;-73
2023/05/27 00:17:05;;;;;;;7.40;2.40;;;11.00;99.90;;;;;;4903360;29;20045;-74
2023/05/27 00:19:31;;;;;;;11.27;3.25;;;10.90;99.90;;;;;;4903306;29;20037;-73
2023/05/27 00:21:57;;;;;;;12.75;3.20;;;10.90;99.90;;;;;;4903087;29;20040;-73
2023/05/27 00:24:23;;;;;;;15.43;3.10;;;11.00;99.90;;;;;;4903467;29;20072;-73
2023/05/27 00:26:49;;;;;;;15.75;3.22;;;10.90;99.90;;;;;;4903125;29;20079;-73
2023/05/27 00:29:16;;;;;;;11.95;3.80;;;10.80;99.90;;;;;;4901503;29;20366;-73
2023/05/27 00:31:42;;;;;;;11.57;3.05;;;10.80;99.90;;;;;;4902793;29;20422;-72
2023/05/27 00:34:07;;;;;;;13.30;3.42;;;10.70;99.90;;;;;;4903090;29;20103;-73
2023/05/27 00:36:33;;;;;;;11.18;3.30;;;10.70;99.90;;;;;;4902876;29;20334;-73
2023/05/27 00:39:00;;;;;;;16.02;3.38;;;10.60;99.90;;;;;;4902830;29;20109;-73
2023/05/27 00:41:26;;;;;;;10.05;3.63;;;10.50;99.90;;;;;;4902587;29;20040;-74
2023/05/27 00:43:52;;;;;;;9.90;2.75;;;10.60;99.90;;;;;;4902612;29;20039;-73
2023/05/27 00:46:19;;;;;;;12.68;3.42;;;10.50;99.90;;;;;;4902951;29;20051;-73
2023/05/27 00:48:46;;;;;;;13.25;3.58;;;10.50;99.90;;;;;;4902576;29;20431;-73
2023/05/27 00:51:12;;;;;;;10.48;3.33;;;10.40;99.90;;;;;;4902937;29;20044;-72
2023/05/27 00:53:43;;;;;;;8.55;3.03;;;10.50;99.90;;;;;;4902678;29;20048;-73
2023/05/27 00:56:10;;;;;;;11.80;2.92;;;10.60;99.90;;;;;;4902506;29;20040;-73
2023/05/27 00:58:36;;;;;;;11.23;3.13;;;10.50;99.90;;;;;;4902653;29;20131;-73
2023/05/27 01:01:03;;;;;;;9.90;2.95;;;10.50;99.90;;;;;;4901632;29;20048;-73
2023/05/27 01:03:32;;;;;;;11.10;3.00;;;10.50;99.90;;;;;;4902378;29;20434;-72
2023/05/27 01:06:19;;;;;;;11.38;3.42;;;10.50;99.90;;;;;;4902384;29;20123;-73
2023/05/27 01:08:53;;;;;;;;;;;10.40;99.90;;;;;;4902721;29;20055;-73
2023/05/27 01:11:24;;;;;;;13.73;3.33;;;10.30;99.90;;;;;;4901827;29;20418;-73
2023/05/27 01:14:00;;;;;;;9.30;3.00;;;10.30;99.90;;;;;;4901995;29;20063;-73
2023/05/27 01:16:27;;;;;;;12.30;3.47;;;10.40;99.90;;;;;;4902284;29;20056;-73
2023/05/27 01:18:56;;;;;;;12.50;3.35;;;10.20;99.90;;;;;;4902141;29;20060;-73
2023/05/27 01:21:24;;;;;;;12.10;4.13;;;10.30;99.90;;;;;;4902312;29;20378;-73
2023/05/27 01:23:51;;;;;;;15.50;3.97;;;10.40;99.90;;;;;;4902107;29;20119;-73
2023/05/27 01:26:17;;;;;;;12.80;3.60;;;10.40;99.90;;;;;;4902228;29;20116;-73
2023/05/27 01:28:43;;;;;;;12.48;3.28;;;10.30;99.90;;;;;;4902112;29;20144;-73
2023/05/27 01:31:23;;;;;;;10.40;3.08;;;10.30;99.90;;;;;;4902085;29;20040;-72
2023/05/27 01:34:06;;;;;;;15.32;3.83;;;10.20;99.90;;;;;;4901955;29;20317;-73
2023/05/27 01:36:45;;;;;;;13.98;3.33;;;10.20;99.90;;;;;;4901885;29;20042;-73
2023/05/27 01:39:12;;;;;;;10.35;3.70;;;10.00;99.90;;;;;;4901483;29;20047;-73
2023/05/27 01:41:39;;;;;;;15.02;4.07;;;10.10;99.90;;;;;;4901077;29;20107;-73
2023/05/27 01:44:06;;;;;;;10.32;3.10;;;10.10;99.90;;;;;;4901932;29;20555;-73
2023/05/27 01:46:32;;;;;;;14.65;3.85;;;10.10;99.90;;;;;;4901578;29;20056;-73
2023/05/27 01:48:58;;;;;;;11.35;3.70;;;10.10;99.90;;;;;;4901839;29;20044;-72
2023/05/27 01:51:23;;;;;;;13.98;4.20;;;10.20;99.90;;;;;;4901731;29;20041;-73
2023/05/27 01:53:49;;;;;;;14.50;3.80;;;10.20;99.90;;;;;;4901528;29;20055;-73
2023/05/27 01:56:15;;;;;;;13.35;3.95;;;10.20;99.90;;;;;;4900639;29;20048;-73
2023/05/27 01:58:41;;;;;;;11.82;3.95;;;10.20;99.90;;;;;;4901652;29;20059;-73
2023/05/27 02:01:07;;;;;;;14.18;3.72;;;10.10;99.90;;;;;;4901392;29;20045;-73
2023/05/27 02:03:32;;;;;;;13.52;4.13;;;10.10;99.90;;;;;;4901551;29;20040;-73
2023/05/27 02:05:58;;;;;;;11.57;4.18;;;10.00;99.90;;;;;;4901365;29;20055;-73
2023/05/27 02:08:23;;;;;;;10.48;3.22;;;10.00;99.90;;;;;;4901454;29;20123;-73
2023/05/27 02:10:49;;;;;;;12.05;3.50;;;10.00;99.90;;;;;;4901166;29;20033;-73
2023/05/27 02:13:15;;;;;;;12.20;3.33;;;10.00;99.90;;;;;;4901104;29;20462;-73
2023/05/27 02:15:40;;;;;;;10.73;3.13;;;10.00;99.90;;;;;;4901351;29;20418;-73
2023/05/27 02:18:06;;;;;;;10.15;3.67;;;10.00;99.90;;;;;;4901226;29;20037;-73
2023/05/27 02:20:32;;;;;;;11.90;3.15;;;9.90;99.90;;;;;;4901690;29;20042;-73
2023/05/27 02:22:57;;;;;;;12.68;3.40;;;9.90;99.90;;;;;;4900218;29;20132;-73
2023/05/27 02:25:23;;;;;;;12.35;3.90;;;10.00;99.90;;;;;;4901449;29;20045;-73
2023/05/27 02:27:51;;;;;;;10.05;3.05;;;10.10;99.90;;;;;;4901094;29;20072;-73
2023/05/27 02:30:17;;;;;;;12.38;3.25;;;10.30;99.90;;;;;;4901057;29;20052;-73
2023/05/27 02:32:43;;;;;;;8.73;2.78;;;10.30;99.90;;;;;;4901434;29;20139;-73
2023/05/27 02:35:12;;;;;;;10.98;3.20;;;10.20;99.90;;;;;;4901110;29;20036;-73
2023/05/27 02:37:38;;;;;;;12.88;3.00;;;10.30;99.90;;;;;;4901200;29;20099;-73
2023/05/27 02:40:05;;;;;;;14.18;3.70;;;10.40;99.90;;;;;;4900806;29;20446;-73
2023/05/27 02:42:30;;;;;;;15.63;3.92;;;10.50;99.90;;;;;;4901001;29;20120;-73
2023/05/27 02:44:56;;;;;;;15.55;3.70;;;10.60;99.90;;;;;;4901261;29;20119;-73
2023/05/27 02:47:22;;;;;;;11.52;2.80;;;10.80;99.90;;;;;;4901349;29;20413;-72
2023/05/27 02:49:47;;;;;;;14.65;3.63;;;10.80;99.90;;;;;;4900287;29;20100;-72
2023/05/27 02:52:13;;;;;;;13.70;3.60;;;10.80;99.90;;;;;;4903584;29;20041;-73
2023/05/27 02:54:39;;;;;;;11.40;3.13;;;10.90;99.90;;;;;;4904953;29;20045;-73
2023/05/27 02:57:04;;;;;;;15.63;2.95;;;10.90;99.90;;;;;;4904668;29;20040;-73
2023/05/27 02:59:30;;;;;;;11.70;2.90;;;11.00;99.90;;;;;;4904618;29;20028;-73
2023/05/27 03:01:56;;;;;;;9.10;2.95;;;11.10;99.90;;;;;;4904714;29;20049;-73
2023/05/27 03:04:21;;;;;;;16.20;3.67;;;11.10;99.90;;;;;;4904851;29;20433;-73
2023/05/27 03:06:47;;;;;;;12.30;3.15;;;11.10;99.90;;;;;;4904608;29;20037;-73
2023/05/27 03:09:14;;;;;;;18.65;3.60;;;11.00;99.90;;;;;;4904770;29;20081;-73
2023/05/27 03:11:40;;;;;;;11.02;3.17;;;11.00;99.90;;;;;;4904074;29;20045;-73
2023/05/27 03:14:05;;;;;;;11.63;2.90;;;11.00;99.90;;;;;;4904350;29;20061;-73
2023/05/27 03:16:31;;;;;;;16.00;3.30;;;11.00;99.90;;;;;;4903555;29;20052;-73
2023/05/27 03:18:57;;;;;;;13.35;3.10;;;11.00;99.90;;;;;;4904240;29;20067;-73
2023/05/27 03:21:23;;;;;;;17.15;3.08;;;11.00;99.90;;;;;;4904260;29;20115;-73
2023/05/27 03:23:48;;;;;;;11.27;2.70;;;11.10;99.90;;;;;;4904462;29;20044;-73
2023/05/27 03:26:14;;;;;;;13.90;3.25;;;11.10;99.90;;;;;;4904167;29;20112;-76
2023/05/27 03:28:40;;;;;;;10.20;2.67;;;11.00;99.90;;;;;;4902987;29;20044;-73
2023/05/27 03:31:05;;;;;;;13.60;3.97;;;11.00;99.90;;;;;;4904114;29;20055;-73
2023/05/27 03:33:31;;;;;;;17.38;3.40;;;11.00;99.90;;;;;;4904042;29;20044;-73
2023/05/27 03:35:57;;;;;;;15.70;3.55;;;11.10;99.90;;;;;;4904294;29;20048;-73
2023/05/27 03:38:23;;;;;;;16.60;3.30;;;11.10;99.90;;;;;;4903769;29;20098;-73
2023/05/27 03:40:48;;;;;;;15.85;3.53;;;11.30;99.90;;;;;;4903504;29;20040;-73
2023/05/27 03:43:14;;;;;;;18.80;3.05;;;11.40;99.90;;;;;;4903786;29;20045;-73
2023/05/27 03:45:40;;;;;;;10.82;3.38;;;11.30;99.90;;;;;;4903763;29;20096;-73
2023/05/27 03:48:05;;;;;;;17.25;3.15;;;11.30;99.90;;;;;;4903764;29;20052;-73
2023/05/27 03:50:34;;;;;;;20.60;4.97;;;11.40;99.90;;;;;;4903906;29;20045;-73
2023/05/27 03:53:00;;;;;;;18.75;3.47;;;11.50;99.90;;;;;;4903987;29;20366;-73
2023/05/27 03:55:26;;;;;;;13.38;3.30;;;11.60;99.90;;;;;;4903680;29;20115;-73
2023/05/27 03:57:51;;;;;;;10.95;3.38;;;11.50;99.90;;;;;;4903639;29;20091;-73
2023/05/27 04:00:17;;;;;;;15.20;3.05;;;11.40;99.90;;;;;;4903526;29;20085;-73
2023/05/27 04:02:43;;;;;;;14.50;3.53;;;11.40;99.90;;;;;;4902650;29;20065;-73
2023/05/27 04:05:09;;;;;;;17.15;4.18;;;11.50;99.90;;;;;;4903730;29;20037;-73
2023/05/27 04:07:34;;;;;;;17.25;3.55;;;11.50;99.90;;;;;;4903578;29;20048;-73
2023/05/27 04:10:00;;;;;;;11.25;3.10;;;11.50;99.90;;;;;;4903286;29;20041;-73
2023/05/27 04:12:26;;;;;;;11.95;2.90;;;11.60;99.90;;;;;;4903247;29;20056;-73
2023/05/27 04:14:51;;;;;;;11.07;3.22;;;11.70;99.90;;;;;;4903539;29;20498;-73
2023/05/27 04:17:17;;;;;;;14.73;2.90;;;11.70;99.90;;;;;;4903385;29;20051;-73
2023/05/27 04:19:43;;;;;;;14.65;3.85;;;11.80;99.90;;;;;;4903490;29;20127;-71
2023/05/27 04:22:09;;;;;;;11.40;4.00;;;11.80;99.90;;;;;;4903179;29;20068;-73
2023/05/27 04:24:34;;;;;;;15.15;3.60;;;11.90;99.90;;;;;;4903329;29;20357;-73
2023/05/27 04:27:02;;;;;;;12.48;2.63;;;11.90;99.90;;;;;;4903062;29;20115;-73
2023/05/27 04:29:28;;;;;;;12.30;3.20;;;12.00;99.90;;;;;;4903155;29;20107;-73
2023/05/27 04:31:53;;;;;;;16.30;3.40;;;12.10;99.90;;;;;;4903258;29;20423;-73
2023/05/27 04:34:20;;;;;;;12.40;3.03;;;12.10;99.90;;;;;;4903050;29;20157;-73
2023/05/27 04:36:49;;;;;;;13.63;3.42;;;12.20;99.90;;;;;;4902246;29;20347;-73
2023/05/27 04:39:18;;;;;;;19.33;4.25;;;12.20;99.90;;;;;;4902705;29;20104;-74
2023/05/27 04:41:45;;;;;;;11.48;3.88;;;12.40;99.90;;;;;;4899426;29;20165;-73
2023/05/27 04:44:11;;;;;;;15.93;3.80;;;12.50;99.90;;;;;;4901191;29;20048;-73
2023/05/27 04:46:38;;;;;;;19.88;3.90;;;12.50;99.90;;;;;;4902769;29;20045;-73
2023/05/27 04:49:04;;;;;;;12.98;3.90;;;12.60;99.90;;;;;;4902658;29;20444;-73
2023/05/27 04:51:30;;;;;;;16.75;3.97;;;12.60;99.90;;;;;;4901715;29;20037;-73
2023/05/27 04:53:56;;;;;;;14.30;3.40;;;12.60;99.90;;;;;;4902789;29;20347;-73
2023/05/27 04:56:22;;;;;;;20.30;4.13;;;12.60;99.90;;;;;;4902426;29;20063;-73
2023/05/27 04:58:48;;;;;;;17.15;4.05;;;12.50;99.90;;;;;;4902497;29;20040;-73
2023/05/27 05:01:17;;;;;;;14.15;3.35;;;12.60;99.90;;;;;;4902649;29;20044;-73
2023/05/27 05:03:52;;;;;;;12.30;3.20;;;12.50;99.90;;;;;;4902408;29;20037;-73
2023/05/27 05:06:22;;;;;;;18.70;3.45;;;12.50;99.90;;;;;;4902461;29;20036;-73
2023/05/27 05:08:48;;;;;;;17.52;3.42;;;12.50;99.90;;;;;;4902082;29;20345;-73
2023/05/27 05:11:14;;;;;;;18.83;3.50;;;12.50;99.90;;;;;;4901904;29;20127;-73
2023/05/27 05:13:40;;;;;;;17.10;3.63;;;12.50;99.90;;;;;;4901970;29;20100;-73
2023/05/27 05:16:06;;;;;;;19.90;3.70;;;12.50;99.90;;;;;;4902250;29;20315;-73
2023/05/27 05:18:32;;;;;;;12.40;2.97;;;12.50;99.90;;;;;;4902030;29;20036;-73
2023/05/27 05:20:57;;;;;;;17.55;3.65;;;12.60;99.90;;;;;;4902118;29;20091;-73
2023/05/27 05:23:23;;;;;;;18.65;3.55;;;12.60;99.90;;;;;;4902119;29;20091;-73
2023/05/27 05:25:54;;;;;;;19.02;3.60;;;12.60;99.90;;;;;;4902281;29;20402;-73
2023/05/27 05:28:20;;;;;;;17.73;3.97;;;12.60;99.90;;;;;;4902178;29;20338;-73
2023/05/27 05:30:46;;;;;;;21.15;4.15;;;12.60;99.90;;;;;;4901828;29;20040;-73
2023/05/27 05:33:12;;;;;;;18.00;3.60;;;12.50;99.90;;;;;;4901136;29;20060;-73
2023/05/27 05:35:37;;;;;;;18.30;3.63;;;12.50;99.90;;;;;;4901844;29;20052;-73
2023/05/27 05:38:03;;;;;;;17.80;3.72;;;12.50;99.90;;;;;;4901657;29;20055;-73
2023/05/27 05:40:29;;;;;;;13.07;3.50;;;12.50;99.90;;;;;;4901321;29;20057;-73
2023/05/27 05:42:54;;;;;;;15.00;3.40;;;12.50;99.90;;;;;;4901846;29;20426;-73
2023/05/27 05:45:20;;;;;;;15.57;4.22;;;12.50;99.90;;;;;;4901808;29;20036;-73
2023/05/27 05:47:46;;;;;;;12.05;3.53;;;12.50;99.90;;;;;;4901633;29;20049;-73
2023/05/27 05:50:11;;;;;;;12.60;3.78;;;12.40;99.90;;;;;;4900709;29;20052;-74
2023/05/27 05:52:37;;;;;;;14.60;3.63;;;12.40;99.90;;;;;;4901558;29;20059;-73
2023/05/27 05:55:03;;;;;;;17.17;3.70;;;12.50;99.90;;;;;;4901808;29;20052;-73
2023/05/27 05:57:31;;;;;;;13.43;3.80;;;12.50;99.90;;;;;;4901528;29;20430;-73
2023/05/27 06:00:00;;;;;;;16.60;4.03;;;12.60;99.90;;;;;;4900415;29;20487;-73
2023/05/27 06:02:26;;;;;;;19.42;4.35;;;12.70;99.90;;;;;;4901861;29;20047;-73
2023/05/27 06:04:51;;;;;;;16.65;3.72;;;12.80;99.90;;;;;;4900304;29;20045;-73
2023/05/27 06:07:17;;;;;;;16.42;4.32;;;12.90;99.90;;;;;;4901419;29;20044;-74
2023/05/27 06:09:43;;;;;;;18.30;4.03;;;13.00;99.90;;;;;;4901231;29;20120;-73
2023/05/27 06:12:08;;;;;;;16.40;4.55;;;13.20;99.90;;;;;;4901422;29;20057;-73
2023/05/27 06:14:34;;;;;;;22.83;4.50;;;13.40;99.90;;;;;;4901357;29;20060;-73
2023/05/27 06:17:00;;;;;;;29.20;6.00;;;13.40;99.90;;;;;;4901494;29;20379;-73
2023/05/27 06:19:26;;;;;;;26.73;4.60;;;13.40;99.90;;;;;;4901206;29;20311;-73
2023/05/27 06:21:51;;;;;;;16.13;4.22;;;13.60;99.90;;;;;;4901305;29;20079;-73
2023/05/27 06:24:19;;;;;;;21.15;4.68;;;13.60;99.90;;;;;;4885038;29;20112;-72
2023/05/27 06:26:45;;;;;;;27.60;4.68;;;13.70;99.90;;;;;;4905007;29;20044;-72
2023/05/27 06:29:10;;;;;;;27.98;4.28;;;13.60;99.90;;;;;;4907618;29;20043;-71
2023/05/27 06:31:36;;;;;;;23.90;4.10;;;13.70;99.90;;;;;;4907467;29;20056;-71
2023/05/27 06:34:02;;;;;;;20.15;4.38;;;13.80;99.90;;;;;;4907501;29;20439;-71
2023/05/27 06:36:28;;;;;;;19.15;3.92;;;13.90;99.90;;;;;;4907349;29;20135;-71
2023/05/27 06:38:54;;;;;;;25.13;3.97;;;14.00;99.90;;;;;;4907713;29;20387;-71
2023/05/27 06:41:19;;;;;;;22.85;4.93;;;14.10;99.90;;;;;;4907119;29;20043;-71
2023/05/27 06:43:45;;;;;;;24.40;5.25;;;14.10;99.90;;;;;;4907591;29;20048;-71
2023/05/27 06:46:11;;;;;;;22.05;4.88;;;14.10;99.90;;;;;;4906339;29;20338;-73
2023/05/27 06:48:36;;;;;;;19.17;4.32;;;13.90;99.90;;;;;;4907458;29;20043;-72
2023/05/27 06:51:02;;;;;;;31.98;5.00;;;14.10;99.90;;;;;;4907571;29;20074;-72
2023/05/27 06:53:28;;;;;;;20.50;4.20;;;14.10;99.90;;;;;;4907399;29;20055;-72
2023/05/27 06:55:55;;;;;;;25.55;4.57;;;14.10;99.90;;;;;;4907523;29;20048;-71
2023/05/27 06:58:20;;;;;;;20.80;4.97;;;14.00;99.90;;;;;;4907192;29;20343;-72
2023/05/27 07:00:46;;;;;;;25.17;5.18;;;14.00;99.90;;;;;;4907372;29;20039;-72
2023/05/27 07:03:12;;;;;;;25.73;4.90;;;13.90;99.90;;;;;;4907208;29;20473;-72
2023/05/27 07:05:38;;;;;;;26.42;5.43;;;14.10;99.90;;;;;;4907348;29;20048;-72
2023/05/27 07:08:05;;;;;;;20.30;4.90;;;14.30;99.90;;;;;;4907360;29;20338;-72
2023/05/27 07:10:30;;;;;;;19.98;3.80;;;14.50;99.90;;;;;;4906770;29;20041;-72
2023/05/27 07:12:56;;;;;;;22.40;4.38;;;14.60;99.90;;;;;;4907071;29;20347;-72
2023/05/27 07:15:21;;;;;;;27.98;4.80;;;14.50;99.90;;;;;;4907122;29;20342;-72
2023/05/27 07:17:47;;;;;;;24.73;4.72;;;14.70;99.90;;;;;;4907213;29;20048;-73
2023/05/27 07:20:13;;;;;;;25.75;4.57;;;14.90;99.90;;;;;;4907040;29;20045;-72
2023/05/27 07:22:39;;;;;;;27.50;5.18;;;14.90;99.90;;;;;;4907354;29;20037;-72
2023/05/27 07:25:05;;;;;;;27.02;5.15;;;14.90;99.90;;;;;;4907329;29;20374;-72
2023/05/27 07:27:30;;;;;;;21.48;4.57;;;14.70;99.90;;;;;;4907106;29;20119;-72
2023/05/27 07:29:56;;;;;;;15.65;4.32;;;14.80;99.90;;;;;;4907211;29;20119;-72
2023/05/27 07:32:22;;;;;;;18.00;4.40;;;15.00;99.90;;;;;;4906040;29;20048;-72
2023/05/27 07:34:48;;;;;;;24.30;4.65;;;15.30;99.90;;;;;;4907187;29;20044;-72
2023/05/27 07:37:13;;;;;;;24.20;5.07;;;15.40;99.90;;;;;;4906316;29;20036;-72
2023/05/27 07:39:39;;;;;;;23.90;4.95;;;15.40;99.90;;;;;;4903909;29;20435;-72
2023/05/27 07:42:05;;;;;;;17.38;5.03;;;15.50;99.90;;;;;;4903732;29;20048;-72
2023/05/27 07:44:31;;;;;;;25.05;4.82;;;15.40;99.90;;;;;;4903866;29;20517;-72
2023/05/27 07:46:57;;;;;;;26.08;5.20;;;15.60;99.90;;;;;;4903855;29;20116;-72
2023/05/27 07:49:24;;;;;;;22.58;5.53;;;15.60;99.90;;;;;;4903825;29;20128;-72
2023/05/27 07:51:50;;;;;;;22.70;5.72;;;15.70;99.90;;;;;;4903765;29;20438;-82
2023/05/27 07:54:16;;;;;;;24.75;6.03;;;15.70;99.90;;;;;;4903756;29;20087;-71
2023/05/27 07:56:41;;;;;;;18.13;5.93;;;15.80;99.90;;;;;;4904032;29;20052;-73
2023/05/27 07:59:07;;;;;;;19.30;6.25;;;15.90;99.90;;;;;;4902595;29;20036;-74
2023/05/27 08:01:33;;;;;;;29.30;6.07;;;15.70;99.90;;;;;;4903819;29;20058;-73
2023/05/27 08:03:59;;;;;;;25.60;6.03;;;15.80;99.90;;;;;;4903390;29;20430;-74
2023/05/27 08:06:25;;;;;;;26.70;6.68;;;15.70;99.90;;;;;;4903864;29;20059;-72
2023/05/27 08:08:51;;;;;;;28.00;6.35;;;15.80;99.90;;;;;;4903391;29;20430;-74
2023/05/27 08:11:16;;;;;;;18.90;5.15;;;16.00;99.90;;;;;;4901931;29;20052;-72
2023/05/27 08:13:42;;;;;;;18.38;5.07;;;16.30;99.90;;;;;;4903330;29;20056;-68
2023/05/27 08:16:09;;;;;;;27.15;6.00;;;16.40;99.90;;;;;;4903702;29;20123;-71
2023/05/27 08:18:36;;;;;;;25.35;6.03;;;16.50;99.90;;;;;;4903189;29;20453;-74
2023/05/27 08:21:02;;;;;;;28.00;5.93;;;16.70;99.90;;;;;;4888554;29;20454;-74
2023/05/27 08:23:27;;;;;;;19.52;5.28;;;16.60;99.90;;;;;;4884614;29;20045;-74
2023/05/27 08:25:53;;;;;;;17.95;4.93;;;16.40;99.90;;;;;;4884402;29;20040;-73
2023/05/27 08:28:19;;;;;;;22.63;4.93;;;16.00;99.90;;;;;;4884544;29;20132;-72
2023/05/27 08:30:44;;;;;;;27.25;5.45;;;16.10;99.90;;;;;;4884221;29;20051;-72
2023/05/27 08:33:10;;;;;;;22.33;4.43;;;16.30;99.90;;;;;;4884214;29;20052;-72
2023/05/27 08:35:36;;;;;;;22.92;4.43;;;16.50;99.90;;;;;;4883571;29;20427;-72
2023/05/27 08:38:01;;;;;;;17.27;4.30;;;16.60;99.90;;;;;;4884241;29;20428;-70
2023/05/27 08:40:27;;;;;;;17.02;4.05;;;16.60;99.90;;;;;;4883257;29;20431;-72
2023/05/27 08:42:53;;;;;;;17.15;4.80;;;16.90;99.90;;;;;;4884040;29;20423;-71
2023/05/27 08:45:19;;;;;;;18.92;4.50;;;17.10;99.90;;;;;;4884209;29;20037;-72
2023/05/27 08:47:45;;;;;;;19.90;4.90;;;17.10;99.90;;;;;;4883932;29;20177;-72
2023/05/27 08:50:11;;;;;;;18.48;4.32;;;17.20;99.90;;;;;;4883802;29;20056;-72
2023/05/27 08:52:48;;;;;;;16.80;4.13;;;17.10;99.90;;;;;;4884184;29;20041;-72
2023/05/27 08:55:18;;;;;;;;;;;17.20;99.90;;;;;;4884587;29;20045;-72
2023/05/27 08:57:46;;;;;;;14.23;4.22;;;17.40;99.90;;;;;;4867564;29;20273;-72
2023/05/27 09:00:14;;;;;;;23.67;5.57;;;17.30;99.90;;;;;;4883788;29;20041;-72
2023/05/27 09:02:41;;;;;;;23.10;4.20;;;17.20;99.90;;;;;;4883266;29;20049;-72
2023/05/27 09:05:09;;;;;;;23.60;4.07;;;17.40;99.90;;;;;;4883685;29;20077;-72
2023/05/27 09:07:36;;;;;;;22.63;4.38;;;17.20;99.90;;;;;;4883907;29;20059;-72
2023/05/27 09:10:01;;;;;;;22.40;4.40;;;17.20;99.90;;;;;;4883252;29;20072;-72
2023/05/27 09:12:27;;;;;;;16.90;4.05;;;17.30;99.90;;;;;;4883423;29;20379;-71
2023/05/27 09:14:54;;;;;;;13.63;3.63;;;17.50;99.90;;;;;;4883635;29;20041;-71
2023/05/27 09:17:23;;;;;;;20.52;4.55;;;17.70;99.90;;;;;;4883587;29;20387;-69
2023/05/27 09:19:51;;;;;;;16.13;4.32;;;18.00;99.90;;;;;;4883761;29;20355;-73
2023/05/27 09:22:25;;;;;;;20.30;3.70;;;18.20;99.90;;;;;;4883497;29;20041;-69
2023/05/27 09:24:54;;;;;;;15.80;4.13;;;18.30;99.90;;;;;;4883413;29;20093;-72
2023/05/27 09:27:27;;;;;;;14.07;3.70;;;18.30;99.90;;;;;;4883165;29;20053;-72
2023/05/27 09:29:54;;;;;;;21.75;5.40;;;18.10;99.90;;;;;;4883588;29;20033;-73
2023/05/27 09:32:27;;;;;;;18.85;4.95;;;18.40;99.90;;;;;;4884203;29;20332;-88
2023/05/27 09:34:54;;;;;;;18.45;4.38;;;18.40;99.90;;;;;;4883332;29;20328;-88
2023/05/27 09:37:24;;;;;;;15.68;4.07;;;17.90;99.90;;;;;;4852516;29;20120;-95
2023/05/27 09:39:51;;;;;;;21.30;4.07;;;17.70;99.90;;;;;;4882278;29;20037;-72
2023/05/27 09:42:18;;;;;;;18.88;4.57;;;17.80;99.90;;;;;;4883032;29;20041;-73
2023/05/27 09:44:48;;;;;;;13.20;4.38;;;18.10;99.90;;;;;;4883112;29;20048;-72
2023/05/27 09:47:17;;;;;;;20.58;4.63;;;18.30;99.90;;;;;;4883204;29;20049;-71
2023/05/27 09:49:43;;;;;;;17.13;3.97;;;18.50;99.90;;;;;;4883042;29;20040;-73
2023/05/27 09:52:13;;;;;;;19.25;4.85;;;18.60;99.90;;;;;;4883158;29;20128;-73
2023/05/27 09:54:39;;;;;;;19.88;4.35;;;18.70;99.90;;;;;;4883264;29;20073;-72
2023/05/27 09:57:07;;;;;;;17.38;4.07;;;19.10;99.90;;;;;;4882860;29;20625;-72
2023/05/27 09:59:34;;;;;;;17.25;3.92;;;19.20;99.90;;;;;;4881849;29;20085;-72
2023/05/27 10:02:02;;;;;;;18.17;3.95;;;19.50;99.90;;;;;;4882005;29;20041;-73
2023/05/27 10:04:29;;;;;;;17.88;4.35;;;19.70;99.90;;;;;;4882782;29;20446;-73
2023/05/27 10:06:56;;;;;;;19.95;5.03;;;19.70;99.90;;;;;;4882720;29;20037;-73
2023/05/27 10:09:22;;;;;;;19.10;4.22;;;19.70;99.90;;;;;;4882627;29;20515;-72
2023/05/27 10:11:49;;;;;;;15.35;4.10;;;19.60;99.90;;;;;;4882494;29;20045;-72
2023/05/27 10:14:16;;;;;;;20.80;5.05;;;19.70;99.90;;;;;;4882470;29;20219;-72
2023/05/27 10:16:55;;;;;;;22.58;5.00;;;20.10;99.90;;;;;;4882701;29;20132;-72
2023/05/27 10:19:21;;;;;;;15.15;4.15;;;20.30;99.90;;;;;;4881522;29;20080;-72
2023/05/27 10:21:47;;;;;;;19.73;5.25;;;20.40;99.90;;;;;;4882716;29;20400;-72
2023/05/27 10:24:13;;;;;;;17.20;4.13;;;20.20;99.90;;;;;;4882807;29;20076;-72
2023/05/27 10:26:41;;;;;;;15.48;4.05;;;20.30;99.90;;;;;;4882660;29;20041;-72
2023/05/27 10:29:08;;;;;;;17.98;4.40;;;20.50;99.90;;;;;;4882948;29;20045;-79
2023/05/27 10:31:36;;;;;;;20.80;4.28;;;20.30;99.90;;;;;;4882694;29;20120;-72
2023/05/27 10:34:05;;;;;;;19.23;4.68;;;19.60;99.90;;;;;;4882703;29;20343;-71
2023/05/27 10:36:32;;;;;;;22.45;4.82;;;19.50;99.90;;;;;;4881825;29;20170;-77
2023/05/27 10:39:01;;;;;;;17.63;4.78;;;19.60;99.90;;;;;;4883017;29;20068;-72
2023/05/27 10:41:27;;;;;;;18.85;4.70;;;19.70;99.90;;;;;;4882326;29;20037;-72
2023/05/27 10:43:57;;;;;;;17.75;4.30;;;20.10;99.90;;;;;;4882373;29;20430;-72
2023/05/27 10:46:23;;;;;;;22.67;4.28;;;20.50;99.90;;;;;;4883228;29;20052;-83
2023/05/27 10:48:48;;;;;;;15.52;4.90;;;20.50;99.90;;;;;;4882650;29;20091;-82
2023/05/27 10:51:14;;;;;;;19.40;4.55;;;19.80;99.90;;;;;;4866783;29;20052;-72
2023/05/27 10:53:40;;;;;;;13.90;4.30;;;19.70;99.90;;;;;;4882396;29;20036;-72
2023/05/27 10:56:08;;;;;;;14.07;4.50;;;19.70;99.90;;;;;;4882468;29;20083;-72
2023/05/27 10:58:35;;;;;;;19.30;5.38;;;20.40;99.90;;;;;;4882194;29;20097;-72
2023/05/27 11:01:07;;;;;;;14.88;4.32;;;20.90;99.90;;;;;;4882250;29;20040;-72
2023/05/27 11:03:33;;;;;;;19.98;4.85;;;20.80;99.90;;;;;;4882531;29;20041;-80
2023/05/27 11:06:06;;;;;;;15.70;4.38;;;20.70;99.90;;;;;;4882346;29;20051;-80
2023/05/27 11:08:35;;;;;;;24.58;5.80;;;20.20;99.90;;;;;;4881440;29;20091;-81
2023/05/27 11:11:08;;;;;;;14.25;4.03;;;20.30;99.90;;;;;;4881530;29;20132;-81
2023/05/27 11:13:48;;;;;;;19.38;4.85;;;20.20;99.90;;;;;;4883833;29;20056;-73
2023/05/27 11:16:14;;;;;;;14.45;4.38;;;20.70;99.90;;;;;;4886041;29;20061;-68
2023/05/27 11:18:43;;;;;;;21.85;5.40;;;21.10;99.90;;;;;;4885469;29;20128;-72
2023/05/27 11:21:10;;;;;;;20.75;5.38;;;20.80;99.90;;;;;;4884850;29;20045;-70
2023/05/27 11:23:39;;;;;;;17.45;4.50;;;20.90;99.90;;;;;;4885613;29;20068;-73
2023/05/27 11:26:10;;;;;;;15.63;3.97;;;21.40;99.90;;;;;;4885445;29;20124;-70
2023/05/27 11:28:36;;;;;;;15.75;3.95;;;21.90;99.90;;;;;;4885532;29;20037;-69
2023/05/27 11:31:06;;;;;;;16.90;4.53;;;22.30;99.90;;;;;;4885424;29;20124;-69
2023/05/27 11:33:33;;;;;;;17.45;4.68;;;22.30;99.90;;;;;;4884262;29;20057;-70
2023/05/27 11:36:12;;;;;;;18.45;4.20;;;22.40;99.90;;;;;;4884689;29;20330;-70
2023/05/27 11:38:49;;;;;;;14.15;4.35;;;22.70;99.90;;;;;;4885068;29;20049;-70
2023/05/27 11:41:14;;;;;;;10.85;4.25;;;22.80;99.90;;;;;;4868310;29;20445;-70
2023/05/27 11:44:05;;;;;;;13.25;4.07;;;22.90;99.90;;;;;;4886328;29;20116;-75
2023/05/27 11:46:35;;;;;;;18.63;4.53;;;22.40;99.90;;;;;;4884817;29;20045;-77
2023/05/27 11:49:02;;;;;;;14.10;4.50;;;21.70;99.90;;;;;;4885681;29;20049;-77
2023/05/27 11:51:29;;;;;;;18.80;6.00;;;21.30;99.90;;;;;;4884785;29;20483;-76
2023/05/27 11:53:57;;;;;;;11.30;4.35;;;21.40;99.90;;;;;;4885541;29;20427;-78
2023/05/27 11:56:24;;;;;;;13.98;4.80;;;21.70;99.90;;;;;;4884112;29;20100;-74
2023/05/27 11:58:50;;;;;;;15.55;4.65;;;22.10;99.90;;;;;;4884895;29;20100;-74
2023/05/27 12:01:16;;;;;;;17.60;4.70;;;22.50;99.90;;;;;;4884051;29;20379;-73
2023/05/27 12:03:41;;;;;;;18.92;4.88;;;22.60;99.90;;;;;;4884665;29;20067;-74
2023/05/27 12:06:07;;;;;;;13.82;4.03;;;22.70;99.90;;;;;;4884934;29;20041;-74
2023/05/27 12:08:33;;;;;;;15.48;4.57;;;22.40;99.90;;;;;;4884778;29;20158;-74
2023/05/27 12:10:58;;;;;;;15.20;4.50;;;22.40;99.90;;;;;;4884419;29;20056;-74
2023/05/27 12:13:25;;;;;;;17.08;4.93;;;22.50;99.90;;;;;;4884501;29;20399;-73
2023/05/27 12:15:51;;;;;;;16.67;4.63;;;22.70;99.90;;;;;;4883603;29;20491;-74
2023/05/27 12:18:18;;;;;;;13.57;4.32;;;23.10;99.90;;;;;;4884765;29;20451;-72
2023/05/27 12:28:07;;;;;;;16.85;4.38;;;23.60;99.90;;;;;;5195567;23;20096;-70
2023/05/27 12:30:34;;;;;;;14.27;4.20;;;23.60;99.90;;;;;;4883467;29;20052;-80
2023/05/27 12:33:01;;;;;;;15.30;5.00;;;23.90;99.90;;;;;;4882874;29;20053;-70
2023/05/27 12:35:27;;;;;;;15.18;4.50;;;24.10;99.90;;;;;;4903104;29;20055;-71
2023/05/27 12:37:52;;;;;;;16.13;4.70;;;24.50;99.90;;;;;;4902954;29;20057;-71
2023/05/27 12:40:18;;;;;;;13.55;4.68;;;24.20;99.90;;;;;;4903029;29;20048;-71
2023/05/27 12:42:44;;;;;;;13.60;5.05;;;24.60;99.90;;;;;;4903089;29;20315;-71